createdAt,value
2018-08-07T00:01:31.944Z,58.10
2018-08-07T00:03:59.053Z,58.30
2018-08-07T00:06:26.184Z,58.50
2018-08-07T00:08:53.272Z,58.40
2018-08-07T00:11:20.370Z,58.60
2018-08-07T00:16:14.601Z,58.80
2018-08-07T00:18:41.688Z,58.60
2018-08-07T00:21:08.758Z,58.70
2018-08-07T00:23:35.857Z,58.90
2018-08-07T00:26:02.959Z,59.00
2018-08-07T00:28:30.093Z,58.80
2018-08-07T00:33:31.101Z,59.40
2018-08-07T00:35:58.191Z,60.10
2018-08-07T00:38:25.299Z,60.40
2018-08-07T00:40:52.374Z,60.20
2018-08-07T00:43:19.525Z,62.10
2018-08-07T00:45:46.618Z,61.70
2018-08-07T00:48:13.727Z,61.30
2018-08-07T00:50:40.781Z,61.20
2018-08-07T00:53:07.838Z,60.90
2018-08-07T00:55:34.922Z,60.80
2018-08-07T00:58:02.037Z,63.10
2018-08-07T01:00:29.140Z,63.10
2018-08-07T01:02:56.236Z,63.50
2018-08-07T01:05:23.384Z,64.20
2018-08-07T01:07:50.488Z,64.90
2018-08-07T01:10:18.155Z,65.80
2018-08-07T01:12:45.236Z,66.00
2018-08-07T01:15:15.432Z,65.60
2018-08-07T01:17:43.096Z,63.90
2018-08-07T01:20:12.317Z,63.70
2018-08-07T01:22:39.805Z,65.70
2018-08-07T01:25:12.670Z,66.50
2018-08-07T01:27:39.828Z,66.10
2018-08-07T01:30:09.836Z,66.30
2018-08-07T01:32:36.936Z,67.30
2018-08-07T01:35:04.089Z,67.50
2018-08-07T01:37:31.324Z,69.60
2018-08-07T01:39:58.398Z,69.90
2018-08-07T01:42:25.536Z,70.10
2018-08-07T01:44:52.758Z,71.30
2018-08-07T01:47:19.862Z,71.80
2018-08-07T01:49:46.924Z,73.00
2018-08-07T01:52:14.076Z,73.20
2018-08-07T01:57:08.394Z,73.00
2018-08-07T01:59:35.501Z,74.00
2018-08-07T02:02:02.584Z,75.10
2018-08-07T02:04:29.675Z,75.80
2018-08-07T02:09:23.848Z,76.40
2018-08-07T02:11:50.924Z,76.60
2018-08-07T02:16:45.160Z,77.40
2018-08-07T02:19:12.251Z,77.40
2018-08-07T02:21:39.332Z,78.20
2018-08-07T02:24:06.439Z,79.30
2018-08-07T02:26:33.531Z,79.30
2018-08-07T02:29:00.751Z,78.90
2018-08-07T02:31:27.825Z,79.90
2018-08-07T02:33:54.917Z,80.70
2018-08-07T02:36:22.004Z,81.40
2018-08-07T02:38:49.129Z,82.80
2018-08-07T02:41:16.233Z,83.30
2018-08-07T02:43:43.352Z,82.40
2018-08-07T02:46:10.457Z,81.20
2018-08-07T02:48:37.538Z,84.90
2018-08-07T02:51:04.653Z,86.40
2018-08-07T02:53:31.724Z,87.10
2018-08-07T02:55:58.774Z,87.90
2018-08-07T02:58:25.856Z,88.00
2018-08-07T03:00:52.944Z,88.50
2018-08-07T03:03:20.021Z,88.40
2018-08-07T03:05:47.147Z,88.50
2018-08-07T03:08:14.288Z,88.10
2018-08-07T03:15:35.705Z,88.00
2018-08-07T03:18:03.380Z,86.90
2018-08-07T03:20:30.494Z,88.80
2018-08-07T03:22:57.592Z,89.00
2018-08-07T03:25:24.724Z,88.80
2018-08-07T03:27:51.864Z,88.00
2018-08-07T03:30:19.936Z,89.20
2018-08-07T03:32:47.536Z,90.20
2018-08-07T03:35:14.710Z,90.20
2018-08-07T03:37:42.102Z,89.80
2018-08-07T03:40:11.614Z,89.50
2018-08-07T03:42:39.184Z,89.70
2018-08-07T03:45:07.626Z,90.40
2018-08-07T03:47:34.755Z,90.80
2018-08-07T03:50:01.876Z,91.30
2018-08-07T03:52:28.973Z,90.80
2018-08-07T03:54:56.173Z,90.70
2018-08-07T03:57:23.272Z,90.40
2018-08-07T03:59:50.398Z,90.70
2018-08-07T04:02:17.551Z,90.70
2018-08-07T04:04:44.686Z,90.80
2018-08-07T04:07:11.770Z,90.90
2018-08-07T04:09:38.936Z,91.60
2018-08-07T04:12:05.989Z,92.60
2018-08-07T04:14:33.156Z,92.60
2018-08-07T04:17:00.212Z,92.50
2018-08-07T04:19:27.670Z,92.40
2018-08-07T04:21:55.623Z,92.60
2018-08-07T04:24:22.835Z,92.70
2018-08-07T04:26:49.938Z,92.80
2018-08-07T04:29:17.452Z,92.90
2018-08-07T04:31:44.548Z,92.80
2018-08-07T04:34:11.624Z,93.00
2018-08-07T04:36:38.750Z,93.50
2018-08-07T04:39:08.017Z,93.20
2018-08-07T04:41:35.192Z,93.20
2018-08-07T04:46:29.520Z,93.30
2018-08-07T04:48:56.741Z,93.40
2018-08-07T04:51:23.842Z,93.50
2018-08-07T04:53:50.940Z,93.30
2018-08-07T04:56:18.108Z,93.30
2018-08-07T05:01:12.364Z,93.70
2018-08-07T05:03:39.456Z,93.60
2018-08-07T05:06:06.561Z,93.70
2018-08-07T05:08:33.695Z,93.80
2018-08-07T05:11:00.814Z,94.10
2018-08-07T05:13:27.904Z,94.20
2018-08-07T05:15:54.996Z,94.30
2018-08-07T05:18:22.096Z,94.40
2018-08-07T05:20:49.212Z,94.40
2018-08-07T05:23:16.324Z,94.50
2018-08-07T05:25:43.395Z,94.70
2018-08-07T05:28:10.576Z,94.90
2018-08-07T05:30:37.714Z,94.80
2018-08-07T05:33:04.875Z,94.50
2018-08-07T05:35:31.986Z,94.40
2018-08-07T05:37:59.092Z,94.40
2018-08-07T05:40:26.224Z,94.00
2018-08-07T05:42:53.425Z,93.80
2018-08-07T05:45:20.500Z,94.00
2018-08-07T05:47:47.652Z,93.90
2018-08-07T05:50:15.929Z,93.60
2018-08-07T05:52:42.869Z,93.30
2018-08-07T05:55:10.514Z,93.00
2018-08-07T05:57:37.714Z,93.00
2018-08-07T06:00:12.452Z,93.20
2018-08-07T06:02:39.564Z,92.90
2018-08-07T06:05:06.828Z,93.10
2018-08-07T06:07:33.918Z,93.10
2018-08-07T06:10:00.984Z,92.80
2018-08-07T06:12:28.068Z,92.50
2018-08-07T06:14:55.135Z,92.10
2018-08-07T06:17:22.236Z,91.80
2018-08-07T06:19:49.388Z,91.80
2018-08-07T06:22:16.464Z,91.70
2018-08-07T06:24:43.560Z,91.50
2018-08-07T06:27:10.719Z,91.50
2018-08-07T06:29:37.924Z,91.80
2018-08-07T06:32:05.289Z,92.30
2018-08-07T06:34:32.404Z,92.20
2018-08-07T06:36:59.489Z,91.90
2018-08-07T06:39:26.621Z,91.40
2018-08-07T06:44:20.901Z,91.20
2018-08-07T06:46:48.001Z,91.10
2018-08-07T06:49:15.137Z,91.20
2018-08-07T06:54:09.451Z,91.10
2018-08-07T06:59:03.744Z,91.00
2018-08-07T07:06:25.202Z,90.60
2018-08-07T07:08:52.268Z,89.90
2018-08-07T07:11:20.162Z,90.10
2018-08-07T07:13:47.231Z,88.60
2018-08-07T07:16:14.304Z,87.80
2018-08-07T07:18:41.388Z,87.60
2018-08-07T07:21:08.446Z,86.70
2018-08-07T07:23:35.544Z,86.10
2018-08-07T07:26:02.643Z,86.80
2018-08-07T07:28:29.766Z,87.20
2018-08-07T07:30:56.836Z,87.90
2018-08-07T07:33:23.919Z,88.00
2018-08-07T07:35:51.048Z,88.00
2018-08-07T07:38:18.153Z,87.40
2018-08-07T07:40:45.402Z,87.00
2018-08-07T07:43:12.505Z,85.30
2018-08-07T07:45:39.609Z,83.30
2018-08-07T07:48:06.688Z,83.00
2018-08-07T07:50:33.789Z,83.80
2018-08-07T07:53:00.890Z,82.20
2018-08-07T07:55:28.054Z,80.40
2018-08-07T07:57:55.176Z,79.00
2018-08-07T08:00:24.409Z,78.40
2018-08-07T08:02:51.904Z,79.50
2018-08-07T08:05:19.682Z,77.80
2018-08-07T08:07:46.812Z,77.00
2018-08-07T08:10:13.952Z,75.60
2018-08-07T08:12:41.077Z,74.60
2018-08-07T08:15:10.597Z,74.90
2018-08-07T08:17:37.823Z,75.30
2018-08-07T08:20:06.703Z,74.20
2018-08-07T08:22:34.011Z,73.40
2018-08-07T08:25:01.288Z,72.70
2018-08-07T08:27:28.457Z,74.60
2018-08-07T08:29:56.048Z,75.10
2018-08-07T08:32:23.219Z,74.10
2018-08-07T08:37:17.633Z,72.50
2018-08-07T08:39:44.831Z,72.50
2018-08-07T08:42:12.015Z,73.20
2018-08-07T08:44:39.228Z,72.70
2018-08-07T08:47:06.444Z,71.90
2018-08-07T08:49:33.647Z,71.20
2018-08-07T08:52:00.855Z,70.90
2018-08-07T08:54:27.977Z,70.90
2018-08-07T08:56:55.416Z,71.50
2018-08-07T08:59:22.504Z,70.60
2018-08-07T09:01:49.680Z,69.50
2018-08-07T09:04:16.816Z,69.00
2018-08-07T09:06:44.899Z,70.20
2018-08-07T09:09:13.311Z,70.00
2018-08-07T09:11:40.483Z,69.50
2018-08-07T09:14:08.989Z,68.60
2018-08-07T09:16:36.722Z,67.70
2018-08-07T09:21:31.398Z,68.00
2018-08-07T09:23:58.534Z,67.60
2018-08-07T09:26:32.612Z,67.20
2018-08-07T09:28:59.887Z,66.50
2018-08-07T09:31:27.072Z,65.50
2018-08-07T09:33:54.402Z,66.00
2018-08-07T09:36:21.611Z,65.70
2018-08-07T09:38:48.742Z,65.00
2018-08-07T09:41:15.859Z,64.20
2018-08-07T09:43:43.219Z,63.60
2018-08-07T09:46:10.417Z,64.40
2018-08-07T09:48:37.564Z,64.60
2018-08-07T09:51:04.779Z,63.30
2018-08-07T09:55:59.200Z,61.40
2018-08-07T09:58:26.418Z,62.20
2018-08-07T10:00:59.213Z,62.70
2018-08-07T10:03:26.413Z,62.10
2018-08-07T10:05:53.681Z,61.00
2018-08-07T10:08:20.858Z,60.70
2018-08-07T10:10:47.981Z,60.00
2018-08-07T10:13:15.149Z,61.00
2018-08-07T10:15:42.332Z,60.50
2018-08-07T10:18:09.780Z,59.70
2018-08-07T10:20:36.944Z,59.30
2018-08-07T10:23:04.121Z,59.00
2018-08-07T10:25:31.355Z,59.70
2018-08-07T10:27:58.572Z,59.60
2018-08-07T10:30:25.955Z,58.80
2018-08-07T10:32:53.691Z,58.30
2018-08-07T10:35:20.939Z,57.40
2018-08-07T10:37:48.315Z,58.30
2018-08-07T10:40:17.803Z,58.40
2018-08-07T10:42:45.120Z,57.80
2018-08-07T10:45:13.909Z,57.60
2018-08-07T10:47:41.217Z,56.60
2018-08-07T10:50:20.938Z,56.90
2018-08-07T10:52:48.521Z,57.50
2018-08-07T10:55:15.805Z,57.50
2018-08-07T10:57:45.129Z,57.10
2018-08-07T11:00:15.806Z,56.50
2018-08-07T11:02:43.761Z,55.90
2018-08-07T11:05:11.693Z,55.60
2018-08-07T11:07:39.092Z,55.70
2018-08-07T11:10:07.937Z,54.50
2018-08-07T11:12:35.138Z,53.70
2018-08-07T11:15:02.338Z,53.80
2018-08-07T11:17:30.289Z,53.90
2018-08-07T11:19:57.529Z,53.80
2018-08-07T11:22:24.671Z,52.70
2018-08-07T11:24:52.196Z,53.10
2018-08-07T11:27:19.384Z,53.40
2018-08-07T11:29:46.618Z,54.20
2018-08-07T11:32:13.816Z,55.00
2018-08-07T11:34:41.017Z,54.60
2018-08-07T11:37:08.187Z,53.60
2018-08-07T11:39:35.449Z,53.00
2018-08-07T11:42:02.657Z,53.50
2018-08-07T11:44:29.932Z,53.60
2018-08-07T11:46:57.011Z,52.00
2018-08-07T11:49:24.138Z,51.30
2018-08-07T11:51:51.290Z,50.70
2018-08-07T11:54:18.405Z,51.00
2018-08-07T11:56:45.566Z,51.60
2018-08-07T11:59:15.681Z,50.90
2018-08-07T12:01:42.823Z,50.30
2018-08-07T12:04:09.958Z,50.70
2018-08-07T12:06:37.152Z,49.90
2018-08-07T12:09:06.843Z,49.40
2018-08-07T12:11:33.998Z,48.50
2018-08-07T12:14:01.213Z,48.10
2018-08-07T12:16:28.384Z,48.20
2018-08-07T12:18:55.517Z,48.10
2018-08-07T12:21:22.638Z,48.00
2018-08-07T12:23:49.716Z,48.50
2018-08-07T12:28:51.000Z,48.90
2018-08-07T12:31:18.135Z,48.80
2018-08-07T12:33:45.272Z,47.40
2018-08-07T12:36:12.400Z,47.70
2018-08-07T12:38:39.504Z,47.70
2018-08-07T12:41:06.676Z,48.20
2018-08-07T12:43:33.785Z,47.90
2018-08-07T12:46:00.955Z,48.00
2018-08-07T12:48:28.093Z,47.40
2018-08-07T12:50:55.305Z,47.00
2018-08-07T12:53:22.502Z,48.20
2018-08-07T12:55:49.649Z,47.70
2018-08-07T12:58:16.796Z,47.80
2018-08-07T13:00:44.050Z,48.90
2018-08-07T13:03:12.513Z,49.70
2018-08-07T13:05:39.681Z,50.30
2018-08-07T13:08:06.841Z,51.10
2018-08-07T13:10:33.987Z,51.30
2018-08-07T13:13:01.140Z,51.20
2018-08-07T13:15:28.460Z,50.70
2018-08-07T13:17:55.613Z,49.90
2018-08-07T13:20:22.758Z,51.00
2018-08-07T13:22:49.949Z,51.50
2018-08-07T13:25:19.202Z,51.20
2018-08-07T13:27:46.378Z,51.00
2018-08-07T13:30:16.677Z,51.50
2018-08-07T13:32:50.752Z,51.90
2018-08-07T13:35:17.956Z,52.80
2018-08-07T13:37:46.624Z,53.10
2018-08-07T13:40:15.716Z,52.90
2018-08-07T13:42:42.941Z,53.20
2018-08-07T13:45:14.480Z,53.50
2018-08-07T13:47:41.652Z,53.50
2018-08-07T13:50:11.909Z,53.00
2018-08-07T13:52:39.015Z,52.10
2018-08-07T13:55:06.209Z,51.70
2018-08-07T13:57:33.339Z,52.10
2018-08-07T14:00:00.749Z,52.60
2018-08-07T14:02:27.856Z,52.70
2018-08-07T14:04:55.011Z,53.20
2018-08-07T14:07:22.324Z,53.70
2018-08-07T14:09:49.608Z,54.30
2018-08-07T14:12:17.352Z,54.40
2018-08-07T14:14:44.521Z,54.50
2018-08-07T14:17:11.703Z,54.10
2018-08-07T14:19:38.833Z,54.10
2018-08-07T14:22:06.363Z,53.30
2018-08-07T14:24:33.537Z,54.20
2018-08-07T14:27:00.669Z,54.30
2018-08-07T14:29:27.827Z,54.10
2018-08-07T14:31:54.971Z,53.70
2018-08-07T14:34:22.111Z,53.70
2018-08-07T14:36:49.403Z,54.00
2018-08-07T14:39:16.932Z,54.50
2018-08-07T14:44:12.871Z,53.90
2018-08-07T14:46:40.121Z,53.90
2018-08-07T14:49:07.317Z,54.00
2018-08-07T14:51:34.453Z,54.80
2018-08-07T14:54:01.621Z,54.80
2018-08-07T14:56:28.732Z,54.80
2018-08-07T14:58:55.906Z,54.70
2018-08-07T15:02:18.909Z,54.50
2018-08-07T15:04:46.368Z,55.80
2018-08-07T15:07:13.894Z,55.80
2018-08-07T15:09:41.017Z,55.90
2018-08-07T15:12:08.137Z,55.40
2018-08-07T15:14:35.336Z,56.40
2018-08-07T15:17:02.436Z,57.00
2018-08-07T15:19:29.610Z,56.90
2018-08-07T15:21:56.759Z,57.50
2018-08-07T15:24:23.819Z,58.20
2018-08-07T15:26:51.041Z,58.50
2018-08-07T15:29:18.497Z,58.20
2018-08-07T15:31:45.733Z,58.50
2018-08-07T15:34:12.844Z,58.50
2018-08-07T15:36:40.002Z,57.00
2018-08-07T15:39:09.281Z,55.70
2018-08-07T15:41:36.515Z,55.90
2018-08-07T15:44:03.761Z,54.90
2018-08-07T15:46:30.876Z,54.60
2018-08-07T15:48:57.978Z,53.60
2018-08-07T15:51:25.111Z,53.90
2018-08-07T15:53:52.617Z,53.20
2018-08-07T15:56:20.913Z,52.90
2018-08-07T15:58:48.024Z,51.90
2018-08-07T16:01:15.121Z,51.90
2018-08-07T16:03:42.210Z,52.40
2018-08-07T16:06:09.306Z,51.70
2018-08-07T16:08:36.426Z,50.60
2018-08-07T16:11:03.897Z,50.60
2018-08-07T16:13:31.028Z,48.90
2018-08-07T16:15:58.175Z,48.80
2018-08-07T16:18:25.264Z,47.40
2018-08-07T16:20:52.337Z,47.40
2018-08-07T16:23:19.507Z,46.20
2018-08-07T16:25:46.636Z,45.60
2018-08-07T16:28:13.756Z,45.30
2018-08-07T16:30:47.702Z,44.70
2018-08-07T16:33:14.868Z,44.70
2018-08-07T16:35:41.977Z,45.00
2018-08-07T16:38:09.105Z,45.30
2018-08-07T16:40:36.246Z,45.90
2018-08-07T16:43:03.355Z,45.80
2018-08-07T16:45:30.504Z,45.70
2018-08-07T16:47:57.683Z,46.00
2018-08-07T16:50:25.998Z,44.80
2018-08-07T16:52:53.980Z,45.70
2018-08-07T16:55:22.427Z,44.60
2018-08-07T16:57:49.516Z,44.90
2018-08-07T17:00:16.640Z,45.10
2018-08-07T17:02:43.762Z,45.40
2018-08-07T17:05:13.337Z,45.60
2018-08-07T17:07:40.843Z,45.60
2018-08-07T17:10:12.315Z,45.40
2018-08-07T17:12:39.697Z,45.30
2018-08-07T17:15:08.480Z,44.90
2018-08-07T17:17:35.580Z,44.50
2018-08-07T17:20:03.673Z,44.20
2018-08-07T17:22:30.768Z,44.10
2018-08-07T17:24:57.861Z,43.50
2018-08-07T17:27:24.997Z,42.80
2018-08-07T17:29:52.178Z,42.60
2018-08-07T17:32:19.316Z,42.60
2018-08-07T17:34:46.499Z,42.20
2018-08-07T17:37:13.581Z,41.90
2018-08-07T17:39:40.807Z,42.50
2018-08-07T17:42:07.912Z,41.50
2018-08-07T17:44:35.122Z,41.90
2018-08-07T17:47:02.230Z,41.30
2018-08-07T17:49:29.410Z,40.80
2018-08-07T17:51:56.504Z,41.80
2018-08-07T17:54:23.720Z,42.40
2018-08-07T17:56:50.831Z,42.50
2018-08-07T17:59:17.988Z,42.20
2018-08-07T18:01:45.080Z,42.70
2018-08-07T18:04:12.188Z,43.60
2018-08-07T18:06:39.289Z,43.90
2018-08-07T18:09:07.666Z,44.30
2018-08-07T18:11:35.010Z,43.80
2018-08-07T18:14:02.200Z,43.90
2018-08-07T18:16:29.564Z,44.40
2018-08-07T18:18:56.780Z,45.00
2018-08-07T18:21:25.210Z,45.00
2018-08-07T18:23:52.367Z,44.70
2018-08-07T18:26:19.540Z,44.50
2018-08-07T18:28:46.669Z,45.00
2018-08-07T18:31:13.868Z,45.60
2018-08-07T18:33:41.074Z,45.60
2018-08-07T18:36:08.261Z,45.20
2018-08-07T18:38:35.646Z,45.30
2018-08-07T18:41:02.810Z,45.20
2018-08-07T18:43:30.043Z,46.50
2018-08-07T18:45:57.265Z,45.90
2018-08-07T18:48:25.497Z,46.40
2018-08-07T18:50:52.634Z,46.10
2018-08-07T18:53:19.747Z,45.90
2018-08-07T18:55:46.955Z,47.40
2018-08-07T18:58:14.184Z,47.50
2018-08-07T19:00:41.342Z,47.00
2018-08-07T19:03:08.480Z,46.80
2018-08-07T19:05:35.643Z,46.50
2018-08-07T19:08:02.776Z,47.50
2018-08-07T19:10:29.922Z,48.40
2018-08-07T19:12:57.108Z,48.70
2018-08-07T19:15:24.278Z,48.20
2018-08-07T19:17:51.484Z,48.50
2018-08-07T19:20:19.986Z,48.30
2018-08-07T19:22:47.440Z,49.40
2018-08-07T19:25:14.649Z,49.10
2018-08-07T19:27:41.985Z,49.20
2018-08-07T19:30:10.803Z,49.00
2018-08-07T19:32:38.497Z,48.60
2018-08-07T19:35:06.380Z,49.70
2018-08-07T19:37:33.599Z,49.50
2018-08-07T19:40:01.012Z,50.20
2018-08-07T19:42:28.207Z,50.00
2018-08-07T19:44:55.397Z,49.80
2018-08-07T19:47:22.547Z,50.50
2018-08-07T19:49:49.661Z,51.10
2018-08-07T19:52:16.845Z,51.50
2018-08-07T19:54:44.006Z,52.60
2018-08-07T19:57:11.212Z,52.50
2018-08-07T19:59:38.415Z,52.50
2018-08-07T20:02:05.569Z,52.60
2018-08-07T20:04:32.698Z,53.00
2018-08-07T20:06:59.846Z,52.90
2018-08-07T20:09:27.286Z,53.30
2018-08-07T20:11:54.565Z,53.70
2018-08-07T20:14:21.737Z,54.10
2018-08-07T20:16:48.883Z,54.20
2018-08-07T20:19:16.080Z,54.20
2018-08-07T20:21:43.307Z,54.00
2018-08-07T20:24:10.846Z,53.80
2018-08-07T20:26:38.022Z,53.70
2018-08-07T20:29:05.188Z,53.00
2018-08-07T20:31:32.368Z,53.60
2018-08-07T20:33:59.515Z,53.70
2018-08-07T20:36:26.674Z,54.00
2018-08-07T20:38:53.835Z,54.40
2018-08-07T20:41:20.952Z,54.50
2018-08-07T20:43:48.132Z,54.50
2018-08-07T20:46:15.343Z,54.90
2018-08-07T20:48:42.478Z,55.00
2018-08-07T20:51:09.692Z,54.50
2018-08-07T20:53:36.865Z,55.30
2018-08-07T20:56:03.955Z,54.70
2018-08-07T20:58:31.192Z,54.80
2018-08-07T21:00:58.315Z,55.10
2018-08-07T21:03:25.428Z,55.60
2018-08-07T21:05:52.578Z,56.50
2018-08-07T21:08:19.765Z,57.40
2018-08-07T21:10:47.042Z,57.60
2018-08-07T21:13:14.182Z,57.90
2018-08-07T21:15:41.293Z,58.00
2018-08-07T21:18:08.425Z,58.10
2018-08-07T21:20:35.600Z,58.40
2018-08-07T21:23:02.783Z,58.50
2018-08-07T21:25:30.040Z,58.60
2018-08-07T21:27:58.610Z,58.70
2018-08-07T21:30:28.306Z,59.00
2018-08-07T21:32:55.384Z,59.10
2018-08-07T21:35:22.545Z,59.30
2018-08-07T21:37:49.663Z,59.60
2018-08-07T21:40:18.960Z,59.70
2018-08-07T21:42:46.592Z,60.30
2018-08-07T21:45:13.972Z,60.80
2018-08-07T21:47:41.108Z,61.10
2018-08-07T21:50:10.173Z,61.40
2018-08-07T21:52:37.369Z,61.30
2018-08-07T21:55:05.105Z,61.70
2018-08-07T21:57:32.362Z,62.10
2018-08-07T21:59:59.521Z,63.00
2018-08-07T22:02:26.657Z,63.50
2018-08-07T22:04:53.795Z,63.40
2018-08-07T22:07:20.914Z,63.30
2018-08-07T22:09:48.036Z,63.50
2018-08-07T22:12:15.231Z,63.80
2018-08-07T22:14:42.414Z,64.00
2018-08-07T22:17:09.589Z,63.70
2018-08-07T22:19:36.710Z,63.50
2018-08-07T22:22:03.872Z,63.00
2018-08-07T22:24:31.070Z,62.90
2018-08-07T22:26:58.177Z,62.50
2018-08-07T22:29:25.289Z,61.70
2018-08-07T22:31:52.407Z,61.30
2018-08-07T22:34:19.492Z,61.40
2018-08-07T22:36:46.644Z,61.70
2018-08-07T22:39:13.785Z,61.10
2018-08-07T22:41:40.932Z,60.30
2018-08-07T22:44:08.096Z,60.00
2018-08-07T22:46:35.247Z,59.80
2018-08-07T22:49:02.582Z,59.80
2018-08-07T22:51:29.953Z,60.00
2018-08-07T22:53:57.117Z,60.00
2018-08-07T22:56:24.207Z,60.40
2018-08-07T22:58:51.343Z,60.30
2018-08-07T23:01:18.488Z,60.00
2018-08-07T23:03:45.590Z,60.30
2018-08-07T23:06:12.711Z,60.20
2018-08-07T23:08:39.822Z,60.20
2018-08-07T23:11:06.959Z,60.60
2018-08-07T23:13:34.144Z,60.40
2018-08-07T23:16:01.245Z,60.40
2018-08-07T23:18:28.419Z,60.70
2018-08-07T23:20:55.514Z,61.20
2018-08-07T23:23:22.633Z,61.40
2018-08-07T23:25:49.723Z,60.80
2018-08-07T23:28:16.942Z,60.60
2018-08-07T23:30:44.064Z,60.70
2018-08-07T23:33:11.212Z,60.70
2018-08-07T23:35:38.347Z,61.90
2018-08-07T23:38:05.538Z,61.60
2018-08-07T23:40:32.698Z,62.10
2018-08-07T23:42:59.822Z,62.40
2018-08-07T23:45:26.956Z,62.60
2018-08-07T23:47:54.153Z,62.60
2018-08-07T23:50:21.289Z,62.60
2018-08-07T23:52:48.464Z,62.90
2018-08-07T23:55:15.640Z,62.40
2018-08-07T23:57:42.834Z,62.80
